Terminal Aerodrome Forecast
Issued by NWS Upton, NY

Home | Current Version | Previous Version | Text Only | Print | Product List | Glossary On
Versions: 1 2 3 4 5 6 7 8 9 10 11 12 13 14 15 16 17 18 19 20 21 22 23 24 25 26 27 28 29 30 31 32 33
000
FTUS41 KOKX 281929 AAA
TAFEWR
TAF AMD
KEWR 281929Z 2819/2924 35012G22KT P6SM BKN040 OVC100
      TEMPO 2819/2821 5SM -SN BKN015
     FM282100 34015G25KT P6SM OVC040
     FM290400 34015G23KT P6SM BKN050 OVC120
     FM291200 34015G23KT P6SM SCT050 SCT250
     FM291500 34012KT P6SM SCT250
     FM292000 28010KT P6SM SCT250=

USA.gov is the U.S. government's official web portal to all federal, state and local government web resources and services.